Time;durP1;ratioP1;P1;durP2;ratioP2;P2;SDS_P1;SDS_P2;PMS_P1;PMS_P2;Temp;Humidity;BMP_temperature;BMP_pressure;BME280_temperature;BME280_humidity;BME280_pressure;Samples;Min_cycle;Max_cycle;Signal;HPM_P1;HPM_P2
2022/04/16 00:01:19;;;;;;;;;;;;;;;11.78;64.56;99996.50;4845181;29;19925;-71
2022/04/16 00:03:48;;;;;;;;;;;;;;;11.79;64.59;99990.56;4844999;29;19931;-71
2022/04/16 00:06:16;;;;;;;;;;;;;;;11.79;64.44;99990.56;4845339;29;19928;-71
2022/04/16 00:08:45;;;;;;;;;;;;;;;11.80;64.44;99997.41;4845331;29;19931;-71
2022/04/16 00:11:13;;;;;;;;;;;;;;;11.79;64.42;100000.78;4845294;29;19931;-71
2022/04/16 00:13:42;;;;;;;;;;;;;;;11.73;64.56;100002.50;4844858;29;19973;-70
2022/04/16 00:16:11;;;;;;;;;;;;;;;11.67;64.57;99995.66;4844955;29;20417;-71
2022/04/16 00:18:41;;;;;;;;;;;;;;;11.66;64.55;100009.28;4844829;29;20367;-71
2022/04/16 00:21:10;;;;;;;;;;;;;;;11.64;64.53;100005.00;4845226;29;20015;-71
2022/04/16 00:23:40;;;;;;;;;;;;;;;11.69;64.48;100004.19;4844897;29;19924;-71
2022/04/16 00:26:12;;;;;;;;;;;;;;;11.71;64.45;100001.66;4844776;29;19925;-71
2022/04/16 00:28:40;;;;;;;;;;;;;;;11.72;64.48;99999.09;4844786;29;20034;-71
2022/04/16 00:31:09;;;;;;;;;;;;;;;11.69;64.67;99999.09;4844596;29;19924;-71
2022/04/16 00:33:38;;;;;;;;;;;;;;;11.61;64.77;100005.88;4844497;29;19924;-71
2022/04/16 00:36:08;;;;;;;;;;;;;;;11.59;64.96;100004.19;4844516;29;20375;-72
2022/04/16 00:38:37;;;;;;;;;;;;;;;11.62;65.02;100001.59;4844530;29;19924;-71
2022/04/16 00:41:06;;;;;;;;;;;;;;;11.57;65.37;100003.31;4828160;29;19924;-71
2022/04/16 00:43:35;;;;;;;;;;;;;;;11.54;65.49;99999.03;4844365;29;19931;-71
2022/04/16 00:46:03;;;;;;;;;;;;;;;11.48;65.54;99988.81;4844706;29;20018;-71
2022/04/16 00:48:32;;;;;;;;;;;;;;;11.45;65.72;99999.03;4844611;29;20375;-71
2022/04/16 00:51:01;;;;;;;;;;;;;;;11.43;65.56;100004.16;4844272;29;19924;-71
2022/04/16 00:53:31;;;;;;;;;;;;;;;11.36;65.84;100002.44;4844134;29;19924;-71
2022/04/16 00:56:00;;;;;;;;;;;;;;;11.28;65.98;100005.81;4844170;29;19924;-72
2022/04/16 00:58:29;;;;;;;;;;;;;;;11.25;66.42;100001.56;4844422;29;20011;-71
2022/04/16 01:00:58;;;;;;;;;;;;;;;11.22;66.31;100009.25;4844341;29;20343;-71
2022/04/16 01:03:27;;;;;;;;;;;;;;;11.17;66.50;99999.84;4844272;29;20287;-71
2022/04/16 01:05:56;;;;;;;;;;;;;;;11.18;66.23;100004.97;4844086;29;19925;-71
2022/04/16 01:08:25;;;;;;;;;;;;;;;11.20;66.22;99999.88;4827523;29;19924;-71
2022/04/16 01:10:55;;;;;;;;;;;;;;;11.17;65.88;100002.41;4827875;29;19924;-71
2022/04/16 01:13:24;;;;;;;;;;;;;;;11.15;66.01;100004.13;4843920;29;19928;-71
2022/04/16 01:15:53;;;;;;;;;;;;;;;11.09;66.27;100001.53;4843309;29;19924;-71
2022/04/16 01:18:21;;;;;;;;;;;;;;;11.02;66.07;99993.00;4843849;29;19924;-71
2022/04/16 01:20:50;;;;;;;;;;;;;;;11.02;65.99;99992.16;4844083;29;19928;-71
2022/04/16 01:23:21;;;;;;;;;;;;;;;11.03;65.99;99988.75;4843729;29;19928;-71
2022/04/16 01:25:50;;;;;;;;;;;;;;;11.00;66.30;99983.63;4843647;29;19944;-71
2022/04/16 01:28:19;;;;;;;;;;;;;;;10.99;65.89;99987.06;4843725;29;20371;-71
2022/04/16 01:30:47;;;;;;;;;;;;;;;10.98;65.82;99990.44;4843895;29;20324;-71
2022/04/16 01:33:17;;;;;;;;;;;;;;;10.98;66.03;99982.78;4843890;29;19925;-71
2022/04/16 01:35:46;;;;;;;;;;;;;;;10.98;65.98;99987.91;4843699;29;20019;-71
2022/04/16 01:38:14;;;;;;;;;;;;;;;11.00;65.72;99988.75;4827306;29;20276;-71
2022/04/16 01:40:45;;;;;;;;;;;;;;;10.94;66.02;99989.56;4843468;29;19930;-71
2022/04/16 01:43:13;;;;;;;;;;;;;;;10.92;65.53;99996.38;4827555;29;19924;-71
2022/04/16 01:45:42;;;;;;;;;;;;;;;10.84;66.10;99992.13;4843348;29;20372;-71
2022/04/16 01:48:13;;;;;;;;;;;;;;;10.83;66.17;99985.28;4843648;29;19924;-71
2022/04/16 01:50:42;;;;;;;;;;;;;;;10.82;66.13;99989.56;4843502;29;19932;-71
2022/04/16 01:53:11;;;;;;;;;;;;;;;10.79;66.43;99989.56;4843301;29;19977;-71
2022/04/16 01:55:39;;;;;;;;;;;;;;;10.80;66.03;99990.41;4843444;29;20386;-71
2022/04/16 01:58:10;;;;;;;;;;;;;;;10.77;66.23;99991.25;4827074;29;19936;-70
2022/04/16 02:00:39;;;;;;;;;;;;;;;10.73;66.04;99989.50;4843629;29;19932;-71
2022/04/16 02:03:08;;;;;;;;;;;;;;;10.71;65.91;99986.97;4843456;29;19981;-71
2022/04/16 02:05:37;;;;;;;;;;;;;;;10.73;65.95;99980.16;4843321;29;19931;-71
2022/04/16 02:08:07;;;;;;;;;;;;;;;10.76;65.88;99980.19;4843270;29;20007;-71
2022/04/16 02:10:36;;;;;;;;;;;;;;;10.80;66.04;99985.31;4843517;29;19947;-71
2022/04/16 02:13:05;;;;;;;;;;;;;;;10.76;65.96;99984.44;4843451;29;19925;-70
2022/04/16 02:15:35;;;;;;;;;;;;;;;10.73;65.67;99984.41;4827103;29;19924;-70
2022/04/16 02:18:04;;;;;;;;;;;;;;;10.68;66.02;99974.19;4843388;29;19959;-70
2022/04/16 02:20:32;;;;;;;;;;;;;;;10.63;65.63;99983.53;4843057;29;19995;-71
2022/04/16 02:23:01;;;;;;;;;;;;;;;10.66;66.09;99981.00;4843090;29;20027;-71
2022/04/16 02:25:31;;;;;;;;;;;;;;;10.62;65.93;99971.63;4842988;29;19931;-71
2022/04/16 02:28:00;;;;;;;;;;;;;;;10.59;66.06;99976.72;4814078;29;19924;-71
2022/04/16 02:30:30;;;;;;;;;;;;;;;10.59;66.25;99974.16;4846741;29;19929;-70
2022/04/16 02:33:01;;;;;;;;;;;;;;;10.58;65.70;99975.00;4847059;29;20371;-72
2022/04/16 02:35:30;;;;;;;;;;;;;;;10.56;65.83;99981.78;4846714;29;20016;-70
2022/04/16 02:37:58;;;;;;;;;;;;;;;10.52;66.13;99980.09;4846299;29;19928;-71
2022/04/16 02:40:27;;;;;;;;;;;;;;;10.45;66.10;99967.28;4846866;29;19924;-72
2022/04/16 02:42:56;;;;;;;;;;;;;;;10.43;66.83;99969.84;4846876;29;19980;-70
2022/04/16 02:48:04;;;;;;;;;;;;;;;10.39;66.12;99963.00;4846454;29;19925;-72
2022/04/16 02:50:33;;;;;;;;;;;;;;;10.34;66.15;99964.69;4830232;29;19924;-72
2022/04/16 02:53:02;;;;;;;;;;;;;;;10.35;66.43;99956.19;4846451;29;19928;-72
2022/04/16 02:55:31;;;;;;;;;;;;;;;10.28;66.65;99949.34;4846325;29;19924;-72
2022/04/16 02:57:59;;;;;;;;;;;;;;;10.20;66.55;99950.19;4846178;29;19934;-72
2022/04/16 03:00:28;;;;;;;;;;;;;;;10.20;66.37;99958.66;4846572;29;19963;-70
2022/04/16 03:02:56;;;;;;;;;;;;;;;10.17;66.81;99956.13;4846231;29;20386;-71
2022/04/16 03:05:26;;;;;;;;;;;;;;;10.15;66.77;99957.78;4846193;29;19924;-70
2022/04/16 03:07:55;;;;;;;;;;;;;;;10.13;66.80;99956.94;4829908;29;20369;-70
2022/04/16 03:10:23;;;;;;;;;;;;;;;10.13;66.57;99964.56;4846071;29;19931;-71
2022/04/16 03:12:53;;;;;;;;;;;;;;;10.13;66.73;99959.47;4846048;29;19976;-72
2022/04/16 03:18:01;;;;;;;;;;;;;;;10.17;66.45;99968.88;4845858;29;19924;-71
2022/04/16 03:20:32;;;;;;;;;;;;;;;10.18;66.81;99973.09;4845882;29;19931;-71
2022/04/16 03:23:02;;;;;;;;;;;;;;;10.09;66.30;99978.13;4846296;29;19941;-70
2022/04/16 03:25:31;;;;;;;;;;;;;;;10.08;66.75;99971.31;4845855;29;19925;-70
2022/04/16 03:27:59;;;;;;;;;;;;;;;10.00;66.32;99975.53;4845772;29;20391;-70
2022/04/16 03:30:28;;;;;;;;;;;;;;;9.95;67.07;99975.50;4845676;29;19931;-69
2022/04/16 03:32:56;;;;;;;;;;;;;;;9.92;67.10;99979.72;4845726;29;19966;-70
2022/04/16 03:35:25;;;;;;;;;;;;;;;9.94;66.71;99975.47;4846272;29;19931;-70
2022/04/16 03:37:55;;;;;;;;;;;;;;;9.92;66.96;99979.72;4844945;29;19931;-70
2022/04/16 03:40:26;;;;;;;;;;;;;;;9.90;66.93;99981.41;4845895;29;19980;-71
2022/04/16 03:42:57;;;;;;;;;;;;;;;9.87;66.63;99978.81;4845601;29;19928;-70
2022/04/16 03:45:27;;;;;;;;;;;;;;;9.82;66.76;99983.03;4845508;29;19925;-70
2022/04/16 03:47:56;;;;;;;;;;;;;;;9.82;67.02;99978.81;4845725;29;19929;-70
2022/04/16 03:50:26;;;;;;;;;;;;;;;9.86;66.97;99989.88;4845613;29;19924;-70
2022/04/16 03:52:56;;;;;;;;;;;;;;;9.88;66.93;99988.19;4845841;29;19960;-71
2022/04/16 04:00:44;;;;;;;;;;;;;;;9.98;67.09;99989.97;4845456;29;19932;-70
2022/04/16 04:03:13;;;;;;;;;;;;;;;10.02;66.35;99996.78;4845540;29;20438;-70
2022/04/16 04:05:42;;;;;;;;;;;;;;;10.05;67.03;99994.28;4845398;29;19924;-70
2022/04/16 04:08:12;;;;;;;;;;;;;;;10.03;66.21;99998.47;4845354;29;19928;-71
2022/04/16 04:10:41;;;;;;;;;;;;;;;10.03;67.08;99998.47;4845029;29;20041;-71
2022/04/16 04:13:10;;;;;;;;;;;;;;;10.02;66.26;99994.25;4844978;29;19935;-70
2022/04/16 04:15:39;;;;;;;;;;;;;;;9.99;66.45;99994.22;4845061;29;19960;-70
2022/04/16 04:18:07;;;;;;;;;;;;;;;9.98;67.06;100000.16;4844864;29;19925;-71
2022/04/16 04:20:36;;;;;;;;;;;;;;;9.95;66.92;100000.16;4844846;29;20023;-70
2022/04/16 04:23:06;;;;;;;;;;;;;;;9.90;66.41;100010.31;4844805;29;19924;-70
2022/04/16 04:25:35;;;;;;;;;;;;;;;9.89;66.40;100010.28;4845037;29;20277;-70
2022/04/16 04:28:04;;;;;;;;;;;;;;;9.88;66.71;100011.13;4845020;29;20431;-70
2022/04/16 04:30:33;;;;;;;;;;;;;;;9.85;67.11;100013.66;4844862;29;20280;-70
2022/04/16 04:33:02;;;;;;;;;;;;;;;9.87;67.00;100011.97;4844803;29;19925;-71
2022/04/16 04:35:31;;;;;;;;;;;;;;;9.89;67.01;100025.56;4828450;29;19939;-70
2022/04/16 04:37:59;;;;;;;;;;;;;;;9.87;66.76;100022.16;4844787;29;19931;-70
2022/04/16 04:40:29;;;;;;;;;;;;;;;9.89;66.62;100030.69;4844499;29;19947;-71
2022/04/16 04:42:59;;;;;;;;;;;;;;;9.82;66.51;100034.03;4844462;29;19925;-72
2022/04/16 04:45:28;;;;;;;;;;;;;;;9.83;66.85;100035.75;4844146;29;19931;-70
2022/04/16 04:47:57;;;;;;;;;;;;;;;9.84;66.64;100033.19;4843928;29;19928;-70
2022/04/16 04:50:25;;;;;;;;;;;;;;;9.83;66.88;100040.84;4843449;29;19928;-70
2022/04/16 04:52:54;;;;;;;;;;;;;;;9.85;66.92;100044.25;4827847;29;20381;-70
2022/04/16 04:55:22;;;;;;;;;;;;;;;9.91;67.07;100044.31;4844162;29;19931;-70
2022/04/16 04:57:54;;;;;;;;;;;;;;;9.87;66.54;100034.91;4827903;29;19963;-70
2022/04/16 05:00:24;;;;;;;;;;;;;;;9.85;66.31;100034.91;4844104;29;19931;-70
2022/04/16 05:02:53;;;;;;;;;;;;;;;9.83;66.33;100026.41;4844740;29;19924;-68
2022/04/16 05:05:21;;;;;;;;;;;;;;;9.74;65.77;100030.59;4844316;29;19932;-70
2022/04/16 05:07:50;;;;;;;;;;;;;;;9.69;65.49;100027.13;4843957;29;19924;-69
2022/04/16 05:10:19;;;;;;;;;;;;;;;9.61;66.16;100029.63;4843963;29;19931;-72
2022/04/16 05:12:47;;;;;;;;;;;;;;;9.56;66.12;100025.31;4843875;29;19950;-70
2022/04/16 05:15:16;;;;;;;;;;;;;;;9.60;66.32;100021.97;4827886;29;19992;-72
2022/04/16 05:17:46;;;;;;;;;;;;;;;9.53;65.96;100026.13;4843765;29;19924;-72
2022/04/16 05:20:15;;;;;;;;;;;;;;;9.45;66.11;100028.59;4844187;29;19963;-71
2022/04/16 05:22:43;;;;;;;;;;;;;;;9.48;65.70;100021.84;4844065;29;20015;-72
2022/04/16 05:25:12;;;;;;;;;;;;;;;9.53;65.55;100030.38;4844273;29;19932;-72
2022/04/16 05:27:40;;;;;;;;;;;;;;;9.53;65.70;100031.22;4843996;29;19931;-72
2022/04/16 05:30:14;;;;;;;;;;;;;;;9.53;65.17;100028.69;4844172;29;19924;-72
2022/04/16 05:32:45;;;;;;;;;;;;;;;9.44;64.64;100036.25;4827740;29;19924;-72
2022/04/16 05:35:15;;;;;;;;;;;;;;;9.44;65.16;100036.25;4843656;29;20015;-72
2022/04/16 05:37:45;;;;;;;;;;;;;;;9.51;65.37;100021.88;4843507;29;19925;-72
2022/04/16 05:40:13;;;;;;;;;;;;;;;9.70;64.72;100034.78;4843742;29;20367;-71
2022/04/16 05:42:42;;;;;;;;;;;;;;;9.90;63.78;100029.84;4843666;29;20375;-72
2022/04/16 05:45:14;;;;;;;;;;;;;;;10.10;63.83;100030.84;4843369;29;19925;-72
2022/04/16 05:47:44;;;;;;;;;;;;;;;10.29;62.49;100027.59;4843389;29;19957;-72
2022/04/16 05:50:14;;;;;;;;;;;;;;;10.36;62.60;100021.69;4843685;29;19928;-73
2022/04/16 05:52:45;;;;;;;;;;;;;;;10.48;61.96;100031.97;4843974;29;20019;-71
2022/04/16 05:55:13;;;;;;;;;;;;;;;10.53;61.77;100037.91;4843633;29;20280;-70
2022/04/16 05:57:42;;;;;;;;;;;;;;;10.54;60.47;100034.53;4843662;29;19935;-70
2022/04/16 06:00:13;;;;;;;;;;;;;;;10.67;60.69;100046.53;4843295;29;19967;-69
2022/04/16 06:02:42;;;;;;;;;;;;;;;10.80;60.97;100056.78;4843134;29;20012;-70
2022/04/16 06:05:11;;;;;;;;;;;;;;;10.90;60.01;100058.50;4843407;29;20375;-70
2022/04/16 06:07:40;;;;;;;;;;;;;;;10.99;59.77;100054.28;4843118;29;19928;-71
2022/04/16 06:10:10;;;;;;;;;;;;;;;11.08;59.05;100058.59;4827190;29;20288;-73
2022/04/16 06:12:41;;;;;;;;;;;;;;;11.23;58.41;100058.63;4843197;29;19990;-70
2022/04/16 06:15:09;;;;;;;;;;;;;;;11.30;58.55;100055.25;4843560;29;19971;-71
2022/04/16 06:17:38;;;;;;;;;;;;;;;11.12;57.69;100050.09;4842683;29;19924;-71
2022/04/16 06:20:08;;;;;;;;;;;;;;;11.09;57.50;100050.94;4843124;29;19924;-69
2022/04/16 06:22:36;;;;;;;;;;;;;;;11.04;57.07;100031.31;4843583;29;19924;-68
2022/04/16 06:25:05;;;;;;;;;;;;;;;11.14;57.22;100038.16;4843013;29;19925;-69
2022/04/16 06:27:38;;;;;;;;;;;;;;;11.20;56.50;100028.84;4843299;29;19925;-68
2022/04/16 06:30:08;;;;;;;;;;;;;;;11.22;55.54;100031.38;4843453;29;19924;-70
2022/04/16 06:32:36;;;;;;;;;;;;;;;11.29;55.51;100039.06;4843341;29;19925;-72
2022/04/16 06:35:06;;;;;;;;;;;;;;;11.37;55.09;100036.53;4843247;29;19941;-69
2022/04/16 06:37:35;;;;;;;;;;;;;;;11.37;54.80;100039.09;4842576;29;19924;-68
2022/04/16 06:40:05;;;;;;;;;;;;;;;11.42;54.48;100057.84;4842990;29;20434;-70
2022/04/16 06:42:33;;;;;;;;;;;;;;;11.56;54.22;100053.59;4842936;29;19925;-69
2022/04/16 06:45:04;;;;;;;;;;;;;;;11.66;53.93;100069.81;4843144;29;19967;-71
2022/04/16 06:47:33;;;;;;;;;;;;;;;11.75;53.90;100077.50;4843127;29;20007;-71
2022/04/16 06:50:01;;;;;;;;;;;;;;;11.77;53.58;100084.34;4842760;29;19924;-72
2022/04/16 06:52:30;;;;;;;;;;;;;;;11.87;53.40;100087.75;4842914;29;19924;-72
2022/04/16 06:54:58;;;;;;;;;;;;;;;11.82;52.50;100082.63;4842985;29;20332;-69
2022/04/16 06:57:27;;;;;;;;;;;;;;;11.88;52.74;100092.84;4842759;29;19924;-71
2022/04/16 07:00:07;;;;;;;;;;;;;;;11.87;51.94;100090.31;4842638;29;20019;-73
2022/04/16 07:02:36;;;;;;;;;;;;;;;12.00;52.41;100092.00;4842698;29;19924;-71
2022/04/16 07:05:05;;;;;;;;;;;;;;;12.08;52.35;100096.28;4842610;29;19955;-69
2022/04/16 07:07:34;;;;;;;;;;;;;;;12.20;51.95;100099.69;4842566;29;19982;-71
2022/04/16 07:10:03;;;;;;;;;;;;;;;12.27;51.63;100106.50;4842704;29;19967;-72
2022/04/16 07:12:32;;;;;;;;;;;;;;;12.31;51.36;100105.66;4842997;29;19966;-69
2022/04/16 07:15:01;;;;;;;;;;;;;;;12.36;50.81;100109.03;4846390;29;19924;-69
2022/04/16 07:17:31;;;;;;;;;;;;;;;12.51;51.54;100121.81;4845774;29;19924;-71
2022/04/16 07:20:00;;;;;;;;;;;;;;;12.65;51.33;100115.81;4846157;29;19925;-71
2022/04/16 07:22:28;;;;;;;;;;;;;;;12.71;51.01;100120.94;4845838;29;19924;-70
2022/04/16 07:24:57;;;;;;;;;;;;;;;12.75;50.93;100121.78;4845882;29;19924;-72
2022/04/16 07:27:25;;;;;;;;;;;;;;;12.88;50.98;100122.59;4846431;29;19930;-72
2022/04/16 07:29:58;;;;;;;;;;;;;;;12.88;49.91;100133.72;4846050;29;19924;-72
2022/04/16 07:32:27;;;;;;;;;;;;;;;12.79;49.19;100132.00;4846116;29;19972;-72
2022/04/16 07:34:56;;;;;;;;;;;;;;;12.80;49.30;100122.63;4845578;29;20016;-71
2022/04/16 07:37:25;;;;;;;;;;;;;;;12.98;49.14;100125.13;4845449;29;19977;-71
2022/04/16 07:39:53;;;;;;;;;;;;;;;12.89;48.97;100129.41;4845924;29;19929;-70
2022/04/16 07:42:26;;;;;;;;;;;;;;;12.72;49.46;100132.03;4845588;29;19975;-70
2022/04/16 07:44:54;;;;;;;;;;;;;;;12.65;49.46;100136.31;4845569;29;19924;-71
2022/04/16 07:47:23;;;;;;;;;;;;;;;12.48;49.28;100137.19;4845901;29;19932;-71
2022/04/16 07:49:51;;;;;;;;;;;;;;;12.51;50.09;100147.44;4846094;29;19928;-69
2022/04/16 07:52:22;;;;;;;;;;;;;;;12.50;50.10;100145.75;4845312;29;20011;-71
2022/04/16 07:54:50;;;;;;;;;;;;;;;12.53;50.26;100156.81;4845342;29;19924;-72
2022/04/16 07:57:19;;;;;;;;;;;;;;;12.52;49.97;100164.50;4845355;29;19931;-70
2022/04/16 07:59:47;;;;;;;;;;;;;;;12.46;49.94;100160.25;4845372;29;20363;-70
2022/04/16 08:02:16;;;;;;;;;;;;;;;12.43;50.02;100156.84;4845205;29;19947;-70
2022/04/16 08:04:45;;;;;;;;;;;;;;;12.44;50.32;100155.97;4828927;29;19925;-72
2022/04/16 08:07:13;;;;;;;;;;;;;;;12.38;50.02;100161.94;4845109;29;19936;-72
2022/04/16 08:09:43;;;;;;;;;;;;;;;12.44;50.12;100161.09;4845265;29;19932;-72
2022/04/16 08:12:12;;;;;;;;;;;;;;;12.49;50.02;100161.94;4845004;29;19925;-70
2022/04/16 08:14:40;;;;;;;;;;;;;;;12.44;50.26;100158.53;4845606;29;19973;-71
2022/04/16 08:17:09;;;;;;;;;;;;;;;12.30;49.83;100162.81;4844934;29;19930;-71
2022/04/16 08:19:38;;;;;;;;;;;;;;;12.36;49.37;100170.47;4845063;29;19924;-70
2022/04/16 08:22:07;;;;;;;;;;;;;;;12.72;49.57;100170.44;4844769;29;20015;-70
2022/04/16 08:24:42;;;;;;;;;;;;;;;13.10;49.01;100168.69;4843748;29;19932;-70
2022/04/16 08:27:16;;;;;;;;;;;;;;;13.35;47.80;100175.44;4844880;29;20013;-70
2022/04/16 08:29:44;;;;;;;;;;;;;;;13.60;48.04;100176.19;4844992;29;20291;-71
2022/04/16 08:32:13;;;;;;;;;;;;;;;13.98;48.08;100170.81;4828906;29;20023;-70
2022/04/16 08:34:51;;;;;;;;;;;;;;;13.90;45.52;100167.44;4828493;29;19925;-71
2022/04/16 08:37:20;;;;;;;;;;;;;;;13.66;46.09;100176.13;4844536;29;20387;-69
2022/04/16 08:39:48;;;;;;;;;;;;;;;13.54;46.34;100170.22;4844445;29;20402;-71
2022/04/16 08:42:18;;;;;;;;;;;;;;;13.65;46.79;100176.16;4844461;29;20015;-69
2022/04/16 08:44:47;;;;;;;;;;;;;;;13.74;46.38;100160.72;4844799;29;19925;-71
2022/04/16 08:47:15;;;;;;;;;;;;;;;13.76;45.84;100180.38;4844607;29;19924;-71
2022/04/16 08:49:44;;;;;;;;;;;;;;;13.90;45.59;100167.44;4844358;29;19932;-71
2022/04/16 08:52:13;;;;;;;;;;;;;;;13.91;45.38;100164.03;4844278;29;19966;-72
2022/04/16 08:54:42;;;;;;;;;;;;;;;13.95;44.86;100165.69;4844583;29;20306;-69
2022/04/16 08:57:10;;;;;;;;;;;;;;;13.68;45.34;100160.72;4844549;29;19977;-71
2022/04/16 08:59:40;;;;;;;;;;;;;;;13.55;46.12;100175.34;4844024;29;20395;-71
2022/04/16 09:02:09;;;;;;;;;;;;;;;13.69;46.33;100168.44;4844260;29;20015;-71
2022/04/16 09:04:38;;;;;;;;;;;;;;;13.76;45.70;100179.50;4844388;29;20027;-71
2022/04/16 09:07:06;;;;;;;;;;;;;;;14.02;46.01;100188.75;4844393;29;19924;-69
2022/04/16 09:09:35;;;;;;;;;;;;;;;14.01;45.42;100181.91;4844299;29;19928;-70
2022/04/16 09:12:04;;;;;;;;;;;;;;;13.91;45.63;100190.56;4844182;29;19969;-71
2022/04/16 09:14:42;;;;;;;;;;;;;;;14.06;44.84;100199.84;4843926;29;19924;-70
2022/04/16 09:17:19;;;;;;;;;;;;;;;14.16;45.58;100180.94;4843908;29;19931;-70
2022/04/16 09:19:54;;;;;;;;;;;;;;;14.19;44.71;100195.47;4844256;29;19947;-69
2022/04/16 09:22:33;;;;;;;;;;;;;;;14.08;44.22;100182.75;4844089;29;20363;-69
2022/04/16 09:25:02;;;;;;;;;;;;;;;14.09;45.16;100187.00;4844393;29;20302;-70
2022/04/16 09:27:39;;;;;;;;;;;;;;;14.30;45.41;100199.69;4843692;29;19924;-70
2022/04/16 09:30:09;;;;;;;;;;;;;;;14.34;44.57;100191.13;4843847;29;19932;-72
2022/04/16 09:32:48;;;;;;;;;;;;;;;14.52;44.97;100196.09;4843746;29;20007;-69
2022/04/16 09:35:27;;;;;;;;;;;;;;;14.49;44.24;100206.41;4843783;29;19971;-71
2022/04/16 09:38:14;;;;;;;;;;;;;;;14.55;44.01;100198.66;4843655;29;19931;-69
2022/04/16 09:40:46;;;;;;;;;;;;;;;14.41;43.60;100208.19;4843501;29;19925;-72
2022/04/16 09:43:15;;;;;;;;;;;;;;;14.25;43.93;100216.00;4827729;29;19928;-71
2022/04/16 09:45:44;;;;;;;;;;;;;;;14.31;44.15;100221.97;4843443;29;19924;-70
2022/04/16 09:48:15;;;;;;;;;;;;;;;14.41;44.21;100199.63;4843603;29;19932;-71
2022/04/16 09:50:44;;;;;;;;;;;;;;;14.35;43.46;100208.22;4843469;29;19964;-70
2022/04/16 09:53:13;;;;;;;;;;;;;;;14.09;43.70;100202.38;4843619;29;19931;-69
2022/04/16 09:55:43;;;;;;;;;;;;;;;13.86;44.39;100210.25;4843273;29;19951;-66
2022/04/16 09:58:12;;;;;;;;;;;;;;;13.64;44.89;100215.47;4843932;29;19924;-69
2022/04/16 10:00:42;;;;;;;;;;;;;;;13.47;45.41;100212.13;4843464;29;19925;-68
2022/04/16 10:03:32;;;;;;;;;;;;;;;13.21;45.30;100210.53;4827304;29;20394;-71
2022/04/16 10:06:02;;;;;;;;;;;;;;;13.24;45.99;100209.66;4827266;29;19968;-72
2022/04/16 10:08:31;;;;;;;;;;;;;;;13.35;46.29;100218.16;4843141;29;19975;-69
2022/04/16 10:11:03;;;;;;;;;;;;;;;13.65;46.60;100223.19;4843191;29;19931;-70
2022/04/16 10:13:35;;;;;;;;;;;;;;;13.76;46.46;100235.94;4827200;29;19960;-70
2022/04/16 10:16:08;;;;;;;;;;;;;;;13.78;45.58;100229.09;4843109;29;19925;-69
2022/04/16 10:18:39;;;;;;;;;;;;;;;14.18;47.14;100240.84;4843120;29;19924;-70
2022/04/16 10:21:15;;;;;;;;;;;;;;;14.58;46.98;100236.31;4843304;29;19928;-68
2022/04/16 10:23:46;;;;;;;;;;;;;;;14.87;45.33;100236.06;4843372;29;20367;-70
2022/04/16 10:26:15;;;;;;;;;;;;;;;15.14;44.18;100228.09;4843280;29;19924;-71
2022/04/16 10:28:44;;;;;;;;;;;;;;;15.25;44.25;100221.09;4843654;29;20027;-72
2022/04/16 10:31:21;;;;;;;;;;;;;;;15.28;43.39;100232.19;4843584;29;20324;-70
2022/04/16 10:34:23;;;;;;;;;;;;;;;15.34;44.14;100247.56;4827258;29;19997;-71
2022/04/16 10:36:54;;;;;;;;;;;;;;;15.08;42.98;100239.28;4839485;29;20007;-71
2022/04/16 10:39:27;;;;;;;;;;;;;;;15.09;44.53;100245.28;4843325;29;19936;-72
2022/04/16 10:41:56;;;;;;;;;;;;;;;14.85;43.69;100250.66;4843345;29;19931;-71
2022/04/16 10:44:26;;;;;;;;;;;;;;;14.44;43.73;100246.72;4843126;29;20318;-71
2022/04/16 10:46:55;;;;;;;;;;;;;;;14.25;44.52;100239.97;4843246;29;19946;-71
2022/04/16 10:49:24;;;;;;;;;;;;;;;14.15;45.40;100242.59;4845572;29;19924;-71
2022/04/16 10:51:55;;;;;;;;;;;;;;;14.11;45.69;100246.88;4846404;29;19931;-72
2022/04/16 10:54:32;;;;;;;;;;;;;;;13.94;45.30;100246.97;4846501;29;20398;-71
2022/04/16 10:57:01;;;;;;;;;;;;;;;13.84;45.86;100265.00;4846399;29;19941;-71
2022/04/16 10:59:37;;;;;;;;;;;;;;;13.75;46.35;100259.91;4846343;29;20019;-70
2022/04/16 11:02:15;;;;;;;;;;;;;;;13.90;46.79;100264.97;4846204;29;19971;-71
2022/04/16 11:04:55;;;;;;;;;;;;;;;14.09;45.67;100257.16;4830156;29;19924;-71
2022/04/16 11:07:27;;;;;;;;;;;;;;;14.36;45.94;100269.00;4846548;29;19924;-71
2022/04/16 11:09:56;;;;;;;;;;;;;;;14.16;45.27;100257.97;4846175;29;20447;-71
2022/04/16 11:12:25;;;;;;;;;;;;;;;14.03;45.75;100271.75;4846708;29;19924;-72
2022/04/16 11:14:54;;;;;;;;;;;;;;;13.79;45.46;100259.03;4846025;29;19925;-71
2022/04/16 11:17:22;;;;;;;;;;;;;;;13.62;46.06;100268.50;4846327;29;19963;-71
2022/04/16 11:19:59;;;;;;;;;;;;;;;13.53;46.38;100263.41;4846217;29;20019;-72
2022/04/16 11:22:29;;;;;;;;;;;;;;;13.54;47.13;100254.84;4845964;29;20031;-72
2022/04/16 11:24:58;;;;;;;;;;;;;;;13.44;46.72;100260.00;4845923;29;19932;-71
2022/04/16 11:35:27;;;;;;;;;;;;;;;13.19;47.84;100275.47;4845717;29;19925;-70
2022/04/16 11:37:57;;;;;;;;;;;;;;;13.07;47.75;100270.34;4845686;29;19928;-72
2022/04/16 11:40:26;;;;;;;;;;;;;;;13.00;47.42;100277.19;4845511;29;19928;-72
2022/04/16 11:42:54;;;;;;;;;;;;;;;12.96;47.72;100280.56;4845454;29;20022;-71
2022/04/16 11:45:24;;;;;;;;;;;;;;;12.91;47.60;100277.16;4829473;29;19967;-71
2022/04/16 11:47:52;;;;;;;;;;;;;;;12.96;48.22;100282.28;4845460;29;19948;-69
2022/04/16 11:50:21;;;;;;;;;;;;;;;12.92;48.22;100283.13;4845728;29;20376;-69
2022/04/16 11:52:50;;;;;;;;;;;;;;;12.77;48.26;100276.31;4845376;29;19931;-70
2022/04/16 11:55:21;;;;;;;;;;;;;;;12.65;48.63;100289.97;4845939;29;20015;-71
2022/04/16 11:57:52;;;;;;;;;;;;;;;12.58;48.47;100288.25;4845616;29;19924;-72
2022/04/16 12:00:21;;;;;;;;;;;;;;;12.55;49.07;100287.38;4845240;29;19924;-69
2022/04/16 12:02:55;;;;;;;;;;;;;;;12.57;48.88;100283.97;4845398;29;19924;-70
2022/04/16 12:05:28;;;;;;;;;;;;;;;12.65;49.32;100284.00;4845174;29;19924;-70
2022/04/16 12:07:57;;;;;;;;;;;;;;;12.61;49.04;100288.28;4845483;29;20288;-71
2022/04/16 12:10:28;;;;;;;;;;;;;;;12.62;48.71;100271.22;4845077;29;19932;-71
2022/04/16 12:12:56;;;;;;;;;;;;;;;12.65;48.91;100278.88;4845092;29;19932;-70
2022/04/16 12:15:26;;;;;;;;;;;;;;;12.58;48.77;100277.16;4844974;29;19971;-69
2022/04/16 12:17:55;;;;;;;;;;;;;;;12.50;48.84;100284.00;4844996;29;20024;-70
2022/04/16 12:20:24;;;;;;;;;;;;;;;12.30;48.63;100275.44;4828801;29;19924;-70
2022/04/16 12:22:55;;;;;;;;;;;;;;;12.26;49.40;100278.84;4844707;29;19972;-69
2022/04/16 12:25:31;;;;;;;;;;;;;;;12.20;49.45;100283.94;4845244;29;19977;-72
2022/04/16 12:28:01;;;;;;;;;;;;;;;12.18;50.09;100291.63;4844900;29;20347;-72
2022/04/16 12:30:32;;;;;;;;;;;;;;;12.31;50.51;100280.53;4845314;29;20264;-71
2022/04/16 12:33:01;;;;;;;;;;;;;;;12.46;50.42;100303.59;4845327;29;19924;-71
2022/04/16 12:35:32;;;;;;;;;;;;;;;12.73;50.23;100292.53;4844912;29;20264;-71
2022/04/16 12:38:01;;;;;;;;;;;;;;;13.03;50.34;100297.66;4844831;29;19953;-71
2022/04/16 12:40:32;;;;;;;;;;;;;;;13.07;49.45;100299.41;4844682;29;19924;-70
2022/04/16 12:43:01;;;;;;;;;;;;;;;13.18;49.03;100304.50;4844786;29;19964;-70
2022/04/16 12:45:31;;;;;;;;;;;;;;;13.24;47.97;100296.81;4844509;29;19924;-71
2022/04/16 12:48:00;;;;;;;;;;;;;;;13.31;48.07;100308.78;4844420;29;19939;-68
2022/04/16 12:50:29;;;;;;;;;;;;;;;13.25;48.93;100314.75;4844727;29;19975;-70
2022/04/16 12:52:59;;;;;;;;;;;;;;;13.04;49.10;100319.00;4828255;29;20011;-70
2022/04/16 12:55:36;;;;;;;;;;;;;;;12.86;49.73;100324.97;4844369;29;19982;-70
2022/04/16 12:58:05;;;;;;;;;;;;;;;12.65;49.66;100304.47;4844226;29;19975;-69
2022/04/16 13:00:34;;;;;;;;;;;;;;;12.58;49.93;100319.00;4844547;29;20397;-70
2022/04/16 13:03:03;;;;;;;;;;;;;;;12.60;50.68;100312.16;4844501;29;19991;-70
2022/04/16 13:05:32;;;;;;;;;;;;;;;12.62;50.60;100319.88;4844082;29;19975;-70
2022/04/16 13:08:07;;;;;;;;;;;;;;;12.59;50.55;100315.59;4844794;29;20039;-70
2022/04/16 13:10:37;;;;;;;;;;;;;;;12.60;50.65;100317.28;4843741;29;19924;-71
2022/04/16 13:13:06;;;;;;;;;;;;;;;12.55;50.83;100313.00;4844057;29;19924;-71